This is the latest recevied weather packets stored in our database for station/object SP3ZBZ-13. If no packets are shown the sender has not sent any weather packets the latest 10 day(s).
| Time | Temp. | Humidity | Pressure | Rain* | Wind** | Luminosity | Snow |
|---|---|---|---|---|---|---|---|
| 1777885326 | 20.56° C | 50% | 1007.7 hPa | - | - | 453 W/m² | - |
| 1777884425 | 20.56° C | 49% | 1007.5 hPa | - | - | 487 W/m² | - |
| 1777883524 | 20.56° C | 49% | 1007.4 hPa | - | - | 296 W/m² | - |
| 1777882623 | 20.56° C | 50% | 1007.4 hPa | - | - | 261 W/m² | - |
| 1777881722 | 20.56° C | 48% | 1007.2 hPa | - | - | 199 W/m² | - |
| 1777880821 | 20° C | 50% | 1007.2 hPa | - | - | 222 W/m² | - |
| 1777879921 | 20° C | 48% | 1007 hPa | - | - | 200 W/m² | - |
| 1777879020 | 20° C | 48% | 1007 hPa | - | - | 336 W/m² | - |
| 1777878118 | 19.44° C | 49% | 1007 hPa | - | - | 254 W/m² | - |
| 1777877217 | 18.89° C | 51% | 1006.9 hPa | - | - | 203 W/m² | - |
| 1777876317 | 18.33° C | 50% | 1007 hPa | - | - | 233 W/m² | - |
| 1777875416 | 17.22° C | 51% | 1007.1 hPa | - | - | 249 W/m² | - |
| 1777874515 | 16.67° C | 53% | 1007.2 hPa | - | - | 189 W/m² | - |
| 1777873614 | 16.67° C | 51% | 1007.2 hPa | - | - | 104 W/m² | - |
| 1777872713 | 17.22° C | 49% | 1007.2 hPa | - | - | 106 W/m² | - |
| 1777871812 | 16.67° C | 53% | 1007 hPa | - | - | 105 W/m² | - |
| 1777870912 | 15.56° C | 55% | 1006.8 hPa | - | - | 85 W/m² | - |
| 1777870010 | 15.56° C | 55% | 1006.5 hPa | - | - | 66 W/m² | - |
| 1777869109 | 15.56° C | 53% | 1006.7 hPa | - | - | 44 W/m² | - |
| 1777868208 | 15.56° C | 52% | 1006.4 hPa | - | - | 34 W/m² | - |
| 1777867307 | 15° C | 53% | 1006.4 hPa | - | - | 28 W/m² | - |
| 1777866406 | 14.44° C | 53% | 1006.3 hPa | - | - | 21 W/m² | - |
| 1777865505 | 14.44° C | 54% | 1006.3 hPa | - | - | 6 W/m² | - |
| 1777864604 | 14.44° C | 53% | 1006.2 hPa | - | - | 2 W/m² | - |
| 1777863703 | 15° C | 52% | 1006.1 hPa | - | - | - | - |
* Rain since midnight (hover to see other rain measurements)
** Current wind speed in m/s (hover to see current wind gust speed)